Albuquerque, New Mexico
Current Conditions -  °F | °C
As of 8:52 PM on Wednesday 22 Oct 2014 (Local Time) from KABQ Reporting Station
Few Clouds Few Clouds  
Wind Chill: 61°   Ceiling: Unl
Heat Index: 61°   Visibility: 10mi
Dew Point: 41°   Wind: 6mph
Humidity: 48%   Direction: 140°SE
Pressure: 30.17"   Gusts: NA
Location:  35.08°N, 106.64°W
Report Text: KABQ 230252Z 14005KT 10SM FEW100 16/05 A3017 RMK AO2 SLP164 T01610050 53012
Loading
Personal Weather Stations






























Interactive Weather Map
Tropical Storm Tracking
New forecast layout! Learn more

10-Day Weather Forecast

Advertisements
Track Severe Weather on mobile